Time;durP1;ratioP1;P1;durP2;ratioP2;P2;SDS_P1;SDS_P2;PMS_P1;PMS_P2;Temp;Humidity;BMP_temperature;BMP_pressure;BME280_temperature;BME280_humidity;BME280_pressure;Samples;Min_cycle;Max_cycle;Signal;HPM_P1;HPM_P2
2022/01/06 00:01:39;;;;;;;28.25;4.57;;;;;;;-146.64;100.00;44457.66;5127694;27;20048;-77
2022/01/06 00:04:04;;;;;;;31.90;5.05;;;;;;;-146.64;100.00;43900.28;5126749;27;20035;-77
2022/01/06 00:06:30;;;;;;;27.45;4.55;;;;;;;-146.64;100.00;43566.31;5099943;27;20440;-77
2022/01/06 00:08:57;;;;;;;30.70;4.78;;;;;;;-146.64;100.00;43527.38;5097433;27;20027;-76
2022/01/06 00:11:23;;;;;;;26.45;4.05;;;;;;;-146.64;100.00;43158.63;5103005;27;20527;-77
2022/01/06 00:13:56;;;;;;;26.30;4.05;;;;;;;-146.64;100.00;42877.97;5107644;27;20501;-76
2022/01/06 00:24:17;;;;;;;22.02;4.30;;;;;;;-146.64;100.00;42812.41;5113844;27;20038;-77
2022/01/06 00:26:43;;;;;;;26.15;3.47;;;;;;;-146.64;100.00;41905.06;5095206;27;20019;-77
2022/01/06 00:29:08;;;;;;;28.80;3.45;;;;;;;-146.64;100.00;42128.31;5135817;27;20119;-77
2022/01/06 00:31:34;;;;;;;36.47;4.15;;;;;;;-146.64;100.00;43162.72;5097729;27;20047;-76
2022/01/06 00:33:59;;;;;;;22.95;3.08;;;;;;;-146.64;100.00;42947.63;5098400;27;20028;-77
2022/01/06 00:36:25;;;;;;;27.45;3.13;;;;;;;-146.64;100.00;42767.34;5133271;27;20023;-77
2022/01/06 00:38:50;;;;;;;26.95;3.47;;;;;;;-146.64;100.00;42490.84;5107390;27;20083;-77
2022/01/06 00:41:16;;;;;;;27.23;3.85;;;;;;;-146.64;100.00;42032.06;5116165;27;20034;-76
2022/01/06 00:43:41;;;;;;;18.58;2.78;;;;;;;-146.64;100.00;42267.56;5114055;27;20390;-76
2022/01/06 00:46:06;;;;;;;23.10;3.00;;;;;;;-146.64;100.00;42826.75;5115770;27;20031;-77
2022/01/06 00:48:32;;;;;;;20.70;3.10;;;;;;;-146.64;100.00;43549.91;5115770;27;20087;-77
2022/01/06 00:50:57;;;;;;;27.00;3.92;;;;;;;-146.64;100.00;43004.97;5098515;27;20040;-76
2022/01/06 00:53:22;;;;;;;14.32;3.03;;;;;;;-146.64;100.00;42775.53;5132456;27;20121;-77
2022/01/06 00:55:48;;;;;;;20.88;2.83;;;;;;;-146.64;100.00;42968.09;5128885;27;20041;-77
2022/01/06 00:58:14;;;;;;;23.20;3.67;;;;;;;-146.64;100.00;43982.25;5100129;27;20084;-77
2022/01/06 01:00:40;;;;;;;21.13;3.60;;;;;;;-146.64;100.00;44119.53;5113193;27;20027;-77
2022/01/06 01:03:08;;;;;;;20.42;3.25;;;;;;;-146.64;100.00;44621.59;5115860;27;20543;-77
2022/01/06 01:05:34;;;;;;;17.70;3.10;;;;;;;-146.64;100.00;45015.09;5109809;27;20110;-77
2022/01/06 01:07:59;;;;;;;23.83;3.70;;;;;;;-146.64;100.00;45097.06;5099614;27;20122;-77
2022/01/06 01:10:25;;;;;;;20.35;2.78;;;;;;;-146.64;100.00;45785.78;5129859;27;20024;-76
2022/01/06 01:12:50;;;;;;;15.13;2.97;;;;;;;-146.64;100.00;45554.16;5098823;27;20027;-76
2022/01/06 01:15:20;;;;;;;20.85;2.83;;;;;;;-146.64;100.00;47204.63;5092588;27;20039;-77
2022/01/06 01:17:48;;;;;;;19.77;3.45;;;;;;;-146.64;100.00;48431.13;5108377;27;20027;-76
2022/01/06 01:20:14;;;;;;;13.88;3.00;;;;;;;-146.64;100.00;48326.53;5125533;27;20114;-76
2022/01/06 01:22:39;;;;;;;21.65;3.22;;;;;;;-146.64;100.00;50273.66;5090889;27;20102;-76
2022/01/06 01:25:05;;;;;;;21.95;3.92;;;;;;;-146.64;100.00;51505.25;5129864;27;20081;-77
2022/01/06 01:27:35;;;;;;;14.25;3.00;;;;;;;-146.64;100.00;52112.94;5099310;27;20098;-76
2022/01/06 01:30:09;;;;;;;27.15;3.17;;;;;;;-146.64;100.00;52400.41;5113293;27;20110;-77
2022/01/06 01:32:36;;;;;;;18.08;3.42;;;;;;;-146.64;100.00;52507.19;5110330;27;20114;-77
2022/01/06 01:35:07;;;;;;;23.80;3.53;;;;;;;-146.64;100.00;52084.22;5114463;27;20031;-76
2022/01/06 01:37:32;;;;;;;13.73;2.78;;;;;;;-146.64;100.00;52092.41;5108096;27;20023;-77
2022/01/06 01:39:59;;;;;;;22.50;3.83;;;;;;;-146.64;100.00;51811.13;5115915;27;20172;-76
2022/01/06 01:42:25;;;;;;;19.13;2.35;;;;;;;-146.64;100.00;52273.09;5130983;27;20035;-77
2022/01/06 01:44:51;;;;;;;21.42;3.20;;;;;;;-146.64;100.00;52166.34;5094414;28;20050;-76
2022/01/06 01:47:44;;;;;;;31.98;3.42;;;;;;;-146.64;100.00;52938.44;5102089;27;20121;-76
2022/01/06 01:50:13;;;;;;;21.27;2.75;;;;;;;-146.64;100.00;54515.97;5119770;27;20043;-76
2022/01/06 01:52:47;;;;;;;16.88;3.45;;;;;;;-146.64;100.00;54778.97;5084593;27;20084;-77
2022/01/06 01:55:16;;;;;;;20.23;3.08;;;;;;;-146.64;100.00;55568.03;5109311;27;20062;-76
2022/01/06 01:57:41;;;;;;;18.23;3.42;;;;;;;-146.64;100.00;56357.25;5114005;27;20022;-76
2022/01/06 02:00:09;;;;;;;20.30;3.60;;;;;;;-146.64;100.00;56357.25;5099158;27;20030;-77
2022/01/06 02:02:35;;;;;;;27.27;4.28;;;;;;;-146.64;100.00;56357.25;5097833;27;20470;-77
2022/01/06 02:05:01;;;;;;;28.45;4.63;;;;;;;-146.64;100.00;56620.34;5096877;27;20034;-77
2022/01/06 02:07:26;;;;;;;30.58;4.10;;;;;;;-146.64;100.00;55568.03;5133835;27;20038;-77
2022/01/06 02:09:52;;;;;;;30.63;4.97;;;;;;;-146.64;100.00;53727.13;5100299;27;20446;-77
2022/01/06 02:12:25;;;;;;;28.00;4.97;;;;;;;-146.64;100.00;52848.09;5092379;27;20061;-76
2022/01/06 02:14:51;;;;;;;28.00;4.15;;;;;;;-146.64;100.00;52076.00;5107489;27;20027;-76
2022/01/06 02:17:16;;;;;;;22.02;3.53;;;;;;;-146.64;100.00;50511.75;5106684;27;20475;-76
2022/01/06 02:19:52;;;;;;;22.08;3.30;;;;;;;-146.64;100.00;50844.25;5113911;27;20035;-76
2022/01/06 02:22:17;;;;;;;11.57;3.05;;;;;;;-146.64;100.00;51143.94;5125561;27;20488;-76
2022/01/06 02:24:42;;;;;;;34.75;4.32;;;;;;;-146.64;100.00;51406.69;5125403;27;20031;-76
2022/01/06 02:27:08;;;;;;;21.75;3.15;;;;;;;-146.64;100.00;51870.69;5113116;27;20486;-77
2022/01/06 02:29:33;;;;;;;19.55;3.05;;;;;;;-146.64;100.00;52938.44;5111068;27;20026;-76
2022/01/06 02:31:58;;;;;;;22.17;5.25;;;;;;;-146.64;100.00;53727.13;5095460;27;20061;-76
2022/01/06 02:34:24;;;;;;;19.80;2.95;;;;;;;-146.64;100.00;55041.97;5115260;27;20027;-76
2022/01/06 02:36:49;;;;;;;19.88;3.38;;;;;;;-146.64;100.00;56883.47;5097573;27;20028;-77
2022/01/06 02:39:14;;;;;;;18.83;3.13;;;;;;;-146.64;100.00;58462.56;5102515;27;20053;-76
2022/01/06 02:41:40;;;;;;;19.85;3.08;;;;;;;-146.64;100.00;59252.38;5097857;27;20055;-77
2022/01/06 02:44:05;;;;;;;9.68;2.30;;;;;;;-146.64;100.00;58989.09;5110153;28;20012;-77
2022/01/06 02:46:31;;;;;;;25.75;3.45;;;;;;;-146.64;100.00;58199.34;5104760;27;20027;-77
2022/01/06 02:48:56;;;;;;;35.30;2.85;;;;;;;-146.64;100.00;57936.13;5111963;28;20068;-76
2022/01/06 02:51:22;;;;;;;30.30;3.97;;;;;;;-146.64;100.00;56883.47;5103281;27;20117;-76
2022/01/06 02:53:52;;;;;;;22.83;2.85;;;;;;;-146.64;100.00;56094.16;5092901;27;20051;-76
2022/01/06 02:56:18;;;;;;;14.10;3.15;;;;;;;-146.64;100.00;56357.25;5106704;27;20436;-77
2022/01/06 02:58:44;;;;;;;29.13;3.13;;;;;;;-146.64;100.00;56357.25;5113704;27;20023;-76
2022/01/06 03:01:10;;;;;;;18.48;3.03;;;;;;;-146.64;100.00;56883.47;5114847;27;20068;-76
2022/01/06 03:03:35;;;;;;;14.27;2.58;;;;;;;-146.64;100.00;57936.13;5099916;28;20027;-76
2022/01/06 03:06:00;;;;;;;18.90;2.42;;;;;;;-146.64;100.00;58199.34;5124362;27;20024;-76
2022/01/06 03:08:27;;;;;;;18.15;2.60;;;;;;;-146.64;100.00;57672.94;5127287;27;20059;-77
2022/01/06 03:10:54;;;;;;;11.52;2.78;;;;;;;-146.64;100.00;57146.59;5105687;27;20031;-77
2022/01/06 03:13:19;;;;;;;12.77;2.65;;;;;;;-146.64;100.00;58725.81;5109454;27;20042;-76
2022/01/06 03:15:44;;;;;;;14.70;2.83;;;;;;;-146.64;100.00;60832.41;5093044;28;20062;-77
2022/01/06 03:18:10;;;;;;;23.38;3.13;;;;;;;-146.64;100.00;60832.41;5095847;27;20035;-76
2022/01/06 03:20:35;;;;;;;18.33;3.42;;;;;;;-146.64;100.00;61886.13;5116126;28;20023;-76
2022/01/06 03:23:01;;;;;;;9.63;2.38;;;;;;;-146.64;100.00;63203.69;5091040;28;20108;-76
2022/01/06 03:25:26;;;;;;;18.80;2.92;;;;;;;-146.64;100.00;63467.22;5098854;28;20101;-76
2022/01/06 03:27:52;;;;;;;22.65;2.70;;;;;;;-146.64;100.00;63467.22;5132002;28;20108;-77
2022/01/06 03:30:22;;;;;;;30.80;2.80;;;;;;;-146.64;100.00;59515.66;5127626;27;20079;-76
2022/01/06 03:32:47;;;;;;;27.00;3.83;;;;;;;-146.64;100.00;51570.94;5097572;28;20401;-77
2022/01/06 03:35:14;;;;;;;18.65;2.88;;;;;;;-146.64;100.00;44156.41;5105267;27;20070;-76
2022/01/06 03:37:40;;;;;;;;;;;;;;;-146.64;100.00;44527.31;5118640;28;20042;-76
2022/01/06 03:40:06;;;;;;;12.20;2.50;;;;;;;-146.64;100.00;46257.31;5103744;28;20331;-76
2022/01/06 03:42:33;;;;;;;17.40;2.25;;;;;;;-146.64;100.00;47257.94;5096643;28;20062;-76
2022/01/06 03:44:59;;;;;;;15.63;2.95;;;;;;;-146.64;100.00;48439.34;5113129;28;20031;-77
2022/01/06 03:47:24;;;;;;;11.75;2.33;;;;;;;-146.64;100.00;50688.25;5097491;27;20027;-77
2022/01/06 03:49:49;;;;;;;20.77;2.80;;;;;;;-146.64;100.00;50885.31;5130877;27;20083;-77
2022/01/06 03:52:14;;;;;;;14.35;2.10;;;;;;;-146.64;100.00;52675.59;5097053;28;20126;-76
2022/01/06 03:54:41;;;;;;;20.60;2.95;;;;;;;-146.64;100.00;53727.13;5093806;27;20475;-77
2022/01/06 03:57:06;;;;;;;18.65;2.55;;;;;;;-146.64;100.00;53201.31;5115513;28;20034;-76
2022/01/06 03:59:32;;;;;;;11.68;2.15;;;;;;;-146.64;100.00;54515.97;5113539;27;20156;-76
2022/01/06 04:01:57;;;;;;;16.85;3.13;;;;;;;-146.64;100.00;56883.47;5096252;28;20015;-77
2022/01/06 04:04:23;;;;;;;10.57;2.42;;;;;;;-146.64;100.00;57146.59;5113487;28;20502;-76
2022/01/06 04:06:48;;;;;;;13.23;2.22;;;;;;;-146.64;100.00;58462.56;5110451;27;20038;-77
2022/01/06 04:09:13;;;;;;;13.80;2.47;;;;;;;-146.64;100.00;57936.13;5102767;28;20110;-76
2022/01/06 04:11:39;;;;;;;13.73;1.92;;;;;;;-146.64;100.00;57146.59;5113403;28;20022;-77
2022/01/06 04:14:04;;;;;;;15.18;2.17;;;;;;;-146.64;100.00;58725.81;5110292;28;20027;-77
2022/01/06 04:16:34;;;;;;;10.77;2.80;;;;;;;-146.64;100.00;58462.56;5096579;28;20039;-77
2022/01/06 04:18:59;;;;;;;11.00;2.03;;;;;;;-146.64;100.00;59252.38;5112579;28;20023;-76
2022/01/06 04:21:25;;;;;;;25.48;3.00;;;;;;;-146.64;100.00;60569.03;5120037;27;20034;-77
2022/01/06 04:23:51;;;;;;;16.88;2.95;;;;;;;-146.64;100.00;61359.25;5098944;28;20027;-76
2022/01/06 04:26:16;;;;;;;14.60;2.17;;;;;;;-146.64;100.00;61359.25;5082890;27;20139;-77
2022/01/06 04:28:42;;;;;;;21.25;2.72;;;;;;;-146.64;100.00;61622.69;5095226;27;20201;-77
2022/01/06 04:31:08;;;;;;;22.63;3.70;;;;;;;-146.64;100.00;56094.16;5080754;28;20039;-77
2022/01/06 04:33:33;;;;;;;20.23;3.08;;;;;;;-146.64;100.00;52412.72;5098241;27;20090;-76
2022/01/06 04:36:00;;;;;;;26.90;3.28;;;;;;;-146.64;100.00;51905.56;5116854;27;20130;-77
2022/01/06 04:38:27;;;;;;;11.23;2.97;;;;;;;-146.64;100.00;51176.78;5117467;27;20031;-76
2022/01/06 04:40:52;;;;;;;13.73;3.60;;;;;;;-146.64;100.00;51365.63;5112908;27;20512;-76
2022/01/06 04:43:18;;;;;;;14.38;2.30;;;;;;;-146.64;100.00;46761.69;5116225;27;20023;-77
2022/01/06 04:45:43;;;;;;;18.48;3.70;;;;;;;-146.64;100.00;44105.19;5112143;27;20423;-76
2022/01/06 04:48:09;;;;;;;13.73;3.05;;;;;;;-146.64;100.00;45835.00;5117209;27;20027;-76
2022/01/06 04:50:34;;;;;;;18.73;2.85;;;;;;;-146.64;100.00;46007.19;5104904;28;20036;-77
2022/01/06 04:52:59;;;;;;;13.68;2.33;;;;;;;-146.64;100.00;47262.03;5111294;27;20128;-77
2022/01/06 04:55:25;;;;;;;16.73;2.47;;;;;;;-146.64;100.00;48507.03;5105652;27;20458;-77
2022/01/06 04:57:50;;;;;;;17.50;2.80;;;;;;;-146.64;100.00;49225.09;5111938;27;20051;-76
2022/01/06 05:00:16;;;;;;;23.92;2.95;;;;;;;-146.64;100.00;48993.25;5082428;27;20035;-76
2022/01/06 05:02:41;;;;;;;14.57;2.72;;;;;;;-146.64;100.00;49079.41;5132037;27;20023;-77
2022/01/06 05:05:07;;;;;;;12.95;3.50;;;;;;;-146.64;100.00;50072.53;5118697;27;20019;-77
2022/01/06 05:07:32;;;;;;;16.25;3.22;;;;;;;-146.64;100.00;51285.56;5097744;27;20118;-77
2022/01/06 05:09:58;;;;;;;13.35;3.80;;;;;;;-146.64;100.00;49744.22;5100159;27;20031;-76
2022/01/06 05:12:23;;;;;;;15.25;3.40;;;;;;;-146.64;100.00;50540.47;5128721;27;20061;-76
2022/01/06 05:14:48;;;;;;;11.82;3.80;;;;;;;-146.64;100.00;52342.91;5116504;27;20023;-77
2022/01/06 05:17:14;;;;;;;12.02;2.92;;;;;;;-146.64;100.00;52542.09;5108622;27;20031;-76
2022/01/06 05:19:39;;;;;;;11.00;2.97;;;;;;;-146.64;100.00;54515.97;5135131;27;20027;-77
2022/01/06 05:22:04;;;;;;;17.40;3.53;;;;;;;-146.64;100.00;55831.06;5115178;27;20038;-76
2022/01/06 05:24:30;;;;;;;16.33;2.60;;;;;;;-146.64;100.00;56357.25;5116255;27;20015;-77
2022/01/06 05:26:56;;;;;;;11.77;2.60;;;;;;;-146.64;100.00;55305.00;5099464;27;20044;-76
2022/01/06 05:29:23;;;;;;;15.07;2.45;;;;;;;-146.64;100.00;56357.25;5147813;27;20694;-76
2022/01/06 05:31:50;;;;;;;8.95;2.22;;;;;;;-146.64;100.00;56620.34;5096748;28;20032;-77
2022/01/06 05:34:15;;;;;;;;;;;;;;;-146.64;100.00;57146.59;5098958;27;20027;-77
2022/01/06 05:36:41;;;;;;;9.30;2.13;;;;;;;-146.64;100.00;56883.47;5113767;27;19919;-76
2022/01/06 05:39:06;;;;;;;15.43;2.42;;;;;;;-146.64;100.00;58199.34;5096199;27;20027;-77
2022/01/06 05:41:32;;;;;;;14.45;2.40;;;;;;;-146.64;100.00;58462.56;5108793;27;20030;-77
2022/01/06 05:43:57;;;;;;;19.10;3.08;;;;;;;-146.64;100.00;58462.56;5094822;28;20084;-77
2022/01/06 05:46:22;;;;;;;10.27;2.10;;;;;;;-146.64;100.00;57672.94;5127076;27;20136;-77
2022/01/06 05:48:48;;;;;;;11.48;1.95;;;;;;;-146.64;100.00;59515.66;5098873;27;20027;-76
2022/01/06 05:51:16;;;;;;;9.23;2.15;;;;;;;-146.64;100.00;59515.66;5098610;27;20047;-76
2022/01/06 05:53:41;;;;;;;8.23;2.15;;;;;;;-146.64;100.00;59252.38;5114877;27;20099;-77
2022/01/06 05:56:07;;;;;;;13.90;2.22;;;;;;;-146.64;100.00;59515.66;5132359;27;20023;-76
2022/01/06 05:58:32;;;;;;;12.48;2.20;;;;;;;-146.64;100.00;59252.38;5092911;27;20019;-76
2022/01/06 06:00:57;;;;;;;17.20;2.33;;;;;;;-146.64;100.00;58989.09;5098338;27;20035;-76
2022/01/06 06:03:27;;;;;;;16.25;2.35;;;;;;;-146.64;100.00;59778.97;5133591;27;20392;-77
2022/01/06 06:05:52;;;;;;;13.27;2.13;;;;;;;-146.64;100.00;60569.03;5130503;27;20030;-77
2022/01/06 06:08:17;;;;;;;8.73;1.70;;;;;;;-146.64;100.00;61886.13;5105409;27;20494;-77
2022/01/06 06:10:43;;;;;;;18.17;2.45;;;;;;;-146.64;100.00;62676.59;5101614;27;20027;-76
2022/01/06 06:13:08;;;;;;;14.82;1.60;;;;;;;-146.64;100.00;62676.59;5111194;27;20089;-76
2022/01/06 06:15:36;;;;;;;10.23;2.30;;;;;;;-146.64;100.00;63467.22;5113297;27;20067;-76
2022/01/06 06:18:06;;;;;;;9.10;1.83;;;;;;;-146.64;100.00;63203.69;5113321;27;20023;-76
2022/01/06 06:20:31;;;;;;;9.50;2.15;;;;;;;-146.64;100.00;64258.03;5113126;27;20030;-76
2022/01/06 06:22:57;;;;;;;17.35;2.35;;;;;;;-146.64;100.00;64258.03;5112545;27;20098;-76
2022/01/06 06:25:23;;;;;;;14.75;1.90;;;;;;;-146.64;100.00;63994.41;5113354;27;20023;-76
2022/01/06 06:27:48;;;;;;;9.90;2.53;;;;;;;-146.64;100.00;63730.81;5103000;27;20442;-76
2022/01/06 06:30:13;;;;;;;12.98;3.17;;;;;;;-146.64;100.00;63730.81;5104138;27;20031;-76
2022/01/06 06:32:39;;;;;;;11.43;2.03;;;;;;;-146.64;100.00;63994.41;5095065;27;20450;-76
2022/01/06 06:35:04;;;;;;;11.77;2.03;;;;;;;-146.64;100.00;63730.81;5130511;27;20023;-76
2022/01/06 06:37:30;;;;;;;11.13;2.10;;;;;;;-146.64;100.00;63730.81;5103147;27;20344;-76
2022/01/06 06:39:56;;;;;;;12.05;1.95;;;;;;;-146.64;100.00;64258.03;5111627;27;20027;-76
2022/01/06 06:42:22;;;;;;;13.05;1.92;;;;;;;-146.64;100.00;64258.03;5124320;27;20111;-76
2022/01/06 06:44:47;;;;;;;8.13;2.05;;;;;;;-146.64;100.00;65312.66;5127879;27;20110;-76
2022/01/06 06:47:12;;;;;;;11.00;2.40;;;;;;;-146.64;100.00;65312.66;5127541;27;20027;-76
2022/01/06 06:49:38;;;;;;;8.50;2.35;;;;;;;-146.64;100.00;65576.34;5100194;27;20139;-76
2022/01/06 06:52:03;;;;;;;14.75;2.60;;;;;;;-146.64;100.00;65312.66;5110776;27;20092;-76
2022/01/06 06:54:29;;;;;;;11.43;2.65;;;;;;;-146.64;100.00;65312.66;5125775;27;20477;-76
2022/01/06 06:56:54;;;;;;;11.40;2.30;;;;;;;-146.64;100.00;65312.66;5105818;27;20053;-76
2022/01/06 06:59:20;;;;;;;14.38;2.38;;;;;;;-146.64;100.00;65576.34;5095745;27;20046;-76
2022/01/06 07:01:45;;;;;;;13.63;2.65;;;;;;;-146.64;100.00;65576.34;5107783;27;20039;-76
2022/01/06 07:04:10;;;;;;;11.05;2.75;;;;;;;-146.64;100.00;65576.34;5112452;27;20020;-77
2022/01/06 07:06:36;;;;;;;10.55;2.50;;;;;;;-146.64;100.00;65312.66;5120712;27;20387;-76
2022/01/06 07:09:01;;;;;;;15.93;3.42;;;;;;;-146.64;100.00;65576.34;5109033;28;20019;-77
2022/01/06 07:11:26;;;;;;;9.10;2.53;;;;;;;-146.64;100.00;66103.78;5091845;28;20034;-76
2022/01/06 07:13:52;;;;;;;10.23;2.88;;;;;;;-146.64;100.00;66103.78;5104472;28;20035;-75
2022/01/06 07:16:17;;;;;;;14.98;2.83;;;;;;;-146.64;100.00;66103.78;5100864;27;20031;-75
2022/01/06 07:18:42;;;;;;;17.10;4.15;;;;;;;-146.64;100.00;66895.09;5090276;28;20058;-77
2022/01/06 07:21:07;;;;;;;8.57;2.42;;;;;;;-146.64;100.00;66895.09;5107029;27;20039;-76
2022/01/06 07:23:33;;;;;;;9.32;2.55;;;;;;;-146.64;100.00;67158.91;5104267;28;20023;-76
2022/01/06 07:25:58;;;;;;;11.68;2.95;;;;;;;-146.64;100.00;67422.72;5109327;27;20024;-76
2022/01/06 07:28:23;;;;;;;11.70;2.67;;;;;;;-146.64;100.00;67158.91;5091636;27;20469;-76
2022/01/06 07:30:49;;;;;;;11.38;2.70;;;;;;;-146.64;100.00;67158.91;5092805;28;20130;-76
2022/01/06 07:33:14;;;;;;;17.83;3.20;;;;;;;-146.64;100.00;66631.31;5107482;27;20031;-76
2022/01/06 07:35:39;;;;;;;8.35;2.75;;;;;;;-146.64;100.00;66631.31;5091980;27;20101;-76
2022/01/06 07:38:05;;;;;;;13.35;2.55;;;;;;;-146.64;100.00;66631.31;5091800;28;20081;-76
2022/01/06 07:40:30;;;;;;;15.38;3.35;;;;;;;-146.64;100.00;66631.31;5089574;27;20026;-76
2022/01/06 07:42:55;;;;;;;17.45;3.15;;;;;;;-146.64;100.00;66895.09;5089078;28;20518;-76
2022/01/06 07:45:21;;;;;;;14.65;2.97;;;;;;;-146.64;100.00;66631.31;5101015;28;20024;-76
2022/01/06 07:47:58;;;;;;;9.95;2.65;;;;;;;-146.64;100.00;66631.31;5097400;28;20078;-75
2022/01/06 07:50:26;;;;;;;6.60;2.88;;;;;;;-146.64;100.00;66631.31;5096903;28;20482;-75
2022/01/06 07:52:51;;;;;;;11.30;3.10;;;;;;;-146.64;100.00;66895.09;5129167;27;20115;-75
2022/01/06 07:55:17;;;;;;;21.02;3.85;;;;;;;-146.64;100.00;67422.72;5128930;27;20534;-75
2022/01/06 07:57:42;;;;;;;16.95;4.40;;;;;;;-146.64;100.00;67950.44;5110690;28;20027;-75
2022/01/06 08:00:08;;;;;;;8.25;2.78;;;;;;;-146.64;100.00;67158.91;5095229;28;20062;-75
2022/01/06 08:02:33;;;;;;;18.25;3.97;;;;;;;-146.64;100.00;66895.09;5094467;27;20585;-75
2022/01/06 08:04:58;;;;;;;15.02;3.38;;;;;;;-146.64;100.00;67422.72;5129234;27;20054;-75
2022/01/06 08:07:24;;;;;;;16.10;3.53;;;;;;;-146.64;100.00;67950.44;5104681;27;20081;-75
2022/01/06 08:09:49;;;;;;;20.88;3.78;;;;;;;-146.64;100.00;67950.44;5114435;27;20638;-75
2022/01/06 08:12:14;;;;;;;12.73;3.53;;;;;;;-146.64;100.00;68214.31;5115275;27;20031;-76
2022/01/06 08:14:40;;;;;;;12.52;3.83;;;;;;;-146.64;100.00;68214.31;5115704;27;20023;-76
2022/01/06 08:17:05;;;;;;;17.42;3.58;;;;;;;-146.64;100.00;68214.31;5114908;27;20046;-75
2022/01/06 08:19:30;;;;;;;24.17;4.18;;;;;;;-146.64;100.00;68478.19;5115461;27;20084;-75
2022/01/06 08:21:56;;;;;;;28.77;4.18;;;;;;;-146.64;100.00;68478.19;5103459;27;20027;-75
2022/01/06 08:24:22;;;;;;;22.40;4.70;;;;;;;-146.64;100.00;68214.31;5093078;27;20013;-75
2022/01/06 08:26:47;;;;;;;15.30;4.18;;;;;;;-146.64;100.00;68214.31;5109257;27;20581;-76
2022/01/06 08:29:12;;;;;;;23.00;4.38;;;;;;;-146.64;100.00;68478.19;5098973;27;20674;-75
2022/01/06 08:31:37;;;;;;;24.88;4.80;;;;;;;-146.64;100.00;68742.09;5124712;27;20065;-75
2022/01/06 08:34:03;;;;;;;24.33;4.78;;;;;;;-146.64;100.00;69269.97;5098717;27;20023;-75
2022/01/06 08:36:28;;;;;;;20.73;4.25;;;;;;;-146.64;100.00;69269.97;5111632;27;20451;-75
2022/01/06 08:38:53;;;;;;;27.83;4.40;;;;;;;-146.64;100.00;69269.97;5115035;27;20038;-75
2022/01/06 08:41:19;;;;;;;21.13;4.30;;;;;;;-146.64;100.00;68478.19;5098668;27;20051;-76
2022/01/06 08:43:44;;;;;;;20.70;4.57;;;;;;;-146.64;100.00;67950.44;5130949;27;20406;-77
2022/01/06 08:46:09;;;;;;;21.75;4.03;;;;;;;-146.64;100.00;67422.72;5098725;27;20042;-76
2022/01/06 08:48:35;;;;;;;26.52;4.75;;;;;;;-146.64;100.00;66895.09;5103176;27;20077;-75
2022/01/06 08:51:01;;;;;;;24.23;4.82;;;;;;;-146.64;100.00;67158.91;5096630;27;20047;-75
2022/01/06 08:53:26;;;;;;;23.45;3.80;;;;;;;-146.64;100.00;67158.91;5110002;27;20027;-75
2022/01/06 08:55:52;;;;;;;20.90;4.97;;;;;;;-146.64;100.00;67950.44;5096193;27;20039;-75
2022/01/06 08:58:17;;;;;;;21.85;4.75;;;;;;;-146.64;100.00;67686.56;5097847;27;20015;-75
2022/01/06 09:00:43;;;;;;;26.42;4.30;;;;;;;-146.64;100.00;67422.72;5124479;27;20023;-75
2022/01/06 09:03:09;;;;;;;25.03;4.40;;;;;;;-146.64;100.00;67422.72;5112151;27;20429;-75
2022/01/06 09:05:36;;;;;;;28.65;4.80;;;;;;;-146.64;100.00;66895.09;5095251;27;20366;-75
2022/01/06 09:08:02;;;;;;;23.67;4.85;;;;;;;-146.64;100.00;66631.31;5114979;27;20467;-75
2022/01/06 09:10:33;;;;;;;33.70;5.00;;;;;;;-146.64;100.00;66103.78;5113651;27;20046;-75
2022/01/06 09:12:58;;;;;;;15.63;4.22;;;;;;;-146.64;100.00;65312.66;5115397;27;20110;-75
2022/01/06 09:15:24;;;;;;;29.48;3.92;;;;;;;-146.64;100.00;64521.66;5092873;28;20119;-75
2022/01/06 09:17:49;;;;;;;16.00;4.32;;;;;;;-146.64;100.00;63730.81;5094390;27;20106;-75
2022/01/06 09:20:14;;;;;;;19.98;4.35;;;;;;;-146.64;100.00;60569.03;5112356;27;20549;-75
2022/01/06 09:22:44;;;;;;;32.47;4.38;;;;;;;-146.64;100.00;56620.34;5114433;27;20080;-76
2022/01/06 09:25:11;;;;;;;28.42;3.97;;;;;;;-146.64;100.00;52644.78;5109549;27;20027;-76
2022/01/06 09:27:36;;;;;;;18.73;3.25;;;;;;;-146.64;100.00;48923.50;5129590;27;20176;-75
2022/01/06 09:30:03;;;;;;;28.23;4.63;;;;;;;-146.64;100.00;46175.31;5128970;27;20109;-75
2022/01/06 09:32:28;;;;;;;22.23;3.45;;;;;;;-146.64;100.00;44267.06;5096470;27;20482;-75
2022/01/06 09:34:54;;;;;;;27.05;5.00;;;;;;;-146.64;100.00;43252.84;5114159;27;20031;-75
2022/01/06 09:37:19;;;;;;;19.85;4.35;;;;;;;-146.64;100.00;42654.69;5114312;27;20019;-75
2022/01/06 09:39:47;;;;;;;19.77;3.30;;;;;;;-146.64;100.00;42480.59;5122990;27;20026;-75
2022/01/06 09:42:12;;;;;;;18.80;3.50;;;;;;;-146.64;100.00;42101.69;5103186;27;20387;-75
2022/01/06 09:44:38;;;;;;;33.97;4.13;;;;;;;-146.64;100.00;41542.59;5132039;27;20020;-75
2022/01/06 09:47:06;;;;;;;15.30;2.50;;;;;;;-146.64;100.00;40954.94;5107256;27;20119;-76
2022/01/06 09:49:31;;;;;;;23.52;3.88;;;;;;;-146.64;100.00;40735.88;5131908;27;20102;-75
2022/01/06 09:51:56;;;;;;;18.77;3.33;;;;;;;-146.64;100.00;40733.81;5103625;27;20051;-76
2022/01/06 09:54:22;;;;;;;17.60;2.95;;;;;;;-146.64;100.00;40664.22;5109537;28;20026;-77
2022/01/06 09:56:47;;;;;;;16.17;2.92;;;;;;;-146.64;100.00;40516.81;5124616;27;20560;-76
2022/01/06 09:59:13;;;;;;;12.88;3.40;;;;;;;-146.64;100.00;40496.34;5111111;27;20034;-76
2022/01/06 10:01:38;;;;;;;18.70;2.97;;;;;;;-146.64;100.00;40475.88;5102693;27;20375;-76
2022/01/06 10:04:04;;;;;;;15.25;3.25;;;;;;;-146.64;100.00;40477.91;5094695;27;20080;-76
2022/01/06 10:06:30;;;;;;;17.50;4.03;;;;;;;-146.64;100.00;40486.09;5101431;27;20091;-76
2022/01/06 10:09:02;;;;;;;20.83;3.83;;;;;;;-146.64;100.00;40434.91;5102279;27;20026;-77
2022/01/06 10:11:29;;;;;;;15.52;2.40;;;;;;;-146.64;100.00;40430.81;5100972;27;20958;-76
2022/01/06 10:14:18;;;;;;;10.00;2.58;;;;;;;-146.64;100.00;40357.13;5103865;27;20110;-76
2022/01/06 10:16:46;;;;;;;19.48;3.35;;;;;;;-146.64;100.00;40383.75;5111263;27;20038;-76
2022/01/06 10:19:12;;;;;;;15.73;2.95;;;;;;;-146.64;100.00;40334.63;5113817;27;20382;-76
2022/01/06 10:21:48;;;;;;;13.82;2.42;;;;;;;-146.64;100.00;40330.53;5096654;27;20238;-76
2022/01/06 10:24:15;;;;;;;11.23;3.47;;;;;;;-146.64;100.00;40291.63;5121169;27;20045;-76
2022/01/06 10:27:11;;;;;;;12.30;3.50;;;;;;;-146.64;100.00;40228.16;5117491;27;20115;-76
2022/01/06 10:29:45;;;;;;;10.43;2.70;;;;;;;-146.64;100.00;40193.38;5076334;27;20530;-76
2022/01/06 10:32:15;;;;;;;23.63;3.05;;;;;;;-146.64;100.00;40181.09;5101740;27;20031;-76
2022/01/06 10:34:52;;;;;;;13.90;3.38;;;;;;;-146.64;100.00;40205.66;5116735;27;20027;-76
2022/01/06 10:37:22;;;;;;;10.68;2.92;;;;;;;-146.64;100.00;40172.91;5116753;27;20031;-76
2022/01/06 10:39:49;;;;;;;13.52;3.15;;;;;;;-146.64;100.00;40193.38;5139010;27;20023;-76
2022/01/06 10:42:15;;;;;;;13.43;2.85;;;;;;;-146.64;100.00;40211.78;5122059;27;20540;-76
2022/01/06 10:44:49;;;;;;;10.02;1.75;;;;;;;-146.64;100.00;40134.00;5102270;27;20164;-76
2022/01/06 10:47:31;;;;;;;12.45;2.17;;;;;;;-146.64;100.00;40111.47;5139208;27;20034;-76
2022/01/06 10:50:22;;;;;;;13.25;2.03;;;;;;;-146.64;100.00;40123.75;5112741;27;20079;-76
2022/01/06 10:52:54;;;;;;;14.02;2.70;;;;;;;-146.64;100.00;40107.38;5100983;27;20038;-76
2022/01/06 10:55:25;;;;;;;15.82;2.28;;;;;;;-146.64;100.00;40101.25;5099889;27;20485;-76
2022/01/06 10:58:33;;;;;;;9.40;2.28;;;;;;;-146.64;100.00;40066.44;5102789;27;20117;-76
2022/01/06 11:01:03;;;;;;;14.82;2.20;;;;;;;-146.64;100.00;40066.44;5104613;27;20043;-76
2022/01/06 11:03:32;;;;;;;14.70;3.25;;;;;;;-146.64;100.00;40033.69;5114388;27;20482;-76
2022/01/06 11:06:00;;;;;;;14.60;3.05;;;;;;;-146.64;100.00;40048.03;5095335;27;20019;-76
2022/01/06 11:08:28;;;;;;;13.90;3.10;;;;;;;-146.64;100.00;40074.63;5110958;27;20064;-76